עמוד ראשי
METAR-TAF:

METAR-TAF

שדות תעופה :

Marathon, פלורידה, ארצות הברית

קו רוחב: 24-43-33N, קו אורך: 081-02-52W, גובה: 2מטר

תצפית מזג אוויר נוכחית

הדו"ח נערך לפני 56דקות, בשעה 09:53 UTC
רוח 5קשר מכיוון מזרח
טמפרטורת 28 צלסיוס
לחות 89%
לחץ 1013 hPa
ראות: 16.1קילומטר
מעט עננים בגובה 1700רגל
עננים פזורים בגובה 2500רגל
עננים פזורים בגובה 11000רגל

METAR: KMTH 150953Z AUTO 09005KT 10SM FEW017 SCT025 SCT110 28/26 A2992 RMK AO2 LTG DSNT W SLP133 T02830261 $

זמן: 06:49 (10:49 UTC)

תחזית

הדו"ח נערך לפני 5 שעות ו 27דקות, בשעה 05:22 UTC
תחזית בתוקף מ 15 ב 06 UTC עד 16 ב 06 UTC
רוח 5קשר מכיוון דרום
ראות: 10קילומטר
מעט עננים בגובה 1500רגל
מעונן בגובה 12000רגל
מ 15 ב 1800UTC
רוח 6קשר מכיוון מזרח/צפון-מזרח
ראות: 10קילומטר
עננים פזורים בגובה 2000רגל
עננים בינוניים בגובה 12000רגל
ממטרים במרחב,

TAF: KMTH 150522Z 1506/1606 19005KT P6SM FEW015 OVC120 FM151800 06006KT P6SM VCSH SCT020 BKN120

תצפיות ותחזיות מזג אוויר לגבי יותר מ- 4,000 שדות תעופה ברחבי העולם. דוחות METAR ו- TAF.

התחנות הזמינות מסומנות בנקודות צהובות ואדומות על גבי המפה.

העבר את העכבר לנקודה הצבעונית על מנת לראות את שם התחנה.

לאחר מכן, לחץ כדי לראות את תוכן ואת תחזיות מזג האוויר.

כדי לשנות את המפה: לחץ על הכפתורים הירוקים עם הפלוס השחור כדי להתקרב; על הכפתור הירוק עם המקף כדי להתרחק; או בחיצים הירוקים למפות סמוכות.


METAR-TAF: